• Join FlightAware (Why Join?)
  • Login
  • US Flag 
05:36PM EDT


 

Airport Tracker/Info


-or-


 

Live Flight TrackerFlight Track Log ✈ N960DL ✈ 30-Apr-2013 ✈ KPVD - KATL

Flight Track Log - Related Links

Times and Time Zones

All times are in EDT time to prevent confusion due to time zone crossing. See the N960DL flight status page for this flight to view local times or setup timezone preferences in your user account.

Time Position Orientation Groundspeed Altitude Reporting Facility
EDT Latitude Longitude Course Direction KTS MPH feet Rate Location/Type
12:38PM 41.7600 -71.4186 290° West 234 269 1,600  Level Boston Center
12:40PM 41.8400 -71.4900 326° Northwest 268 308 5,300 2,700 Climbing Boston Center
12:41PM 41.9235 -71.7891 309° West  Level FlightAware Approximate
12:41PM 41.8658 -71.5869 290° West 268 308 8,500  Level Boston Center
12:42PM 41.9647 -71.9302 287° West  Level FlightAware Approximate
12:42PM 41.8956 -71.6869 292° West 268 308 10,900  Level Boston Center
12:43PM 41.9992 -72.0801 287° West  Level FlightAware Approximate
12:43PM 41.9256 -71.8122 288° West 307 353 12,200  Level Boston Center
12:44PM 42.0393 -72.2274 290° West  Level FlightAware Approximate
12:44PM 41.9658 -71.9628 290° West 376 433 14,900  Level Boston Center
12:45PM 41.9997 -72.0936 289° West 411 473 17,200 1,920 Climbing Boston Center
12:46PM 42.0333 -72.2250 289° West 417 480 18,800 1,800 Climbing Boston Center
12:47PM 42.0753 -72.3925 289° West 424 488 20,800 1,920 Climbing Boston Center
12:48PM 42.1147 -72.5492 289° West 435 501 22,700 1,800 Climbing Boston Center
12:49PM 42.1458 -72.7117 285° West 443 510 24,400 2,040 Climbing Boston Center
12:50PM 42.0975 -72.8289 241° Southwest 428 493 26,800 2,160 Climbing Boston Center
12:51PM 42.0053 -72.9764 230° Southwest 401 461 28,800 1,740 Climbing Boston Center
12:52PM 41.9169 -73.1014 227° Southwest 438 504 30,300 1,320 Climbing Boston Center
12:53PM 41.8267 -73.2147 223° Southwest 443 510 31,500 1,260 Climbing Boston Center
12:54PM 41.7444 -73.3361 228° Southwest 443 510 32,900 1,140 Climbing Boston Center
12:55PM 41.6664 -73.4544 229° Southwest 443 510 33,800 360 Climbing Boston Center
12:57PM 41.5258 -73.6697 229° Southwest 429 494 34,000 60 Climbing New York Center
12:58PM 41.4481 -73.7881 229° Southwest 429 494 34,000  Level New York Center
12:59PM 41.3678 -73.9061 228° Southwest 429 494 34,000  Level New York Center
01:00PM 41.2897 -74.0211 228° Southwest 429 494 34,000  Level New York Center
01:01PM 41.2133 -74.1414 230° Southwest 429 494 34,000  Level New York Center
01:02PM 41.1203 -74.2633 225° Southwest 429 494 34,000  Level New York Center
01:03PM 41.0417 -74.3886 230° Southwest 434 499 34,000  Level New York Center
01:04PM 40.9631 -74.5025 228° Southwest 434 499 34,000  Level New York Center
01:05PM 40.8822 -74.6161 227° Southwest 434 499 34,000  Level New York Center
01:06PM 40.8036 -74.7325 228° Southwest 429 494 34,000  Level New York Center
01:07PM 40.7244 -74.8483 228° Southwest 429 494 34,000  Level New York Center
01:08PM 40.6456 -74.9639 228° Southwest 424 488 34,000  Level New York Center
01:09PM 40.5686 -75.0767 228° Southwest 424 488 34,000  Level New York Center
01:10PM 40.4894 -75.1864 227° Southwest 424 488 34,000  Level New York Center
01:11PM 40.4103 -75.2958 226° Southwest 424 488 34,000  Level New York Center
01:12PM 40.3286 -75.4131 228° Southwest 429 494 34,000  Level New York Center
01:13PM 40.2489 -75.5272 228° Southwest 429 494 34,000  Level New York Center
01:14PM 40.1794 -75.6503 234° Southwest 429 494 34,000  Level New York Center
01:15PM 40.1156 -75.7789 237° Southwest 429 494 34,000  Level New York Center
01:16PM 40.0517 -75.9069 237° Southwest 429 494 34,000  Level New York Center
01:17PM 39.9858 -76.0322 236° Southwest 423 487 34,000  Level New York Center
01:19PM 39.8342 -76.3292 236° Southwest 412 474 34,000  Level Washington Center
01:20PM 39.7689 -76.4528 236° Southwest 425 489 34,000  Level Washington Center
01:21PM 39.7014 -76.5758 235° Southwest 433 498 34,000  Level Washington Center
01:22PM 39.6378 -76.7017 237° Southwest 428 493 34,000  Level Washington Center
01:23PM 39.5719 -76.8272 236° Southwest 423 487 34,000  Level Washington Center
01:24PM 39.5039 -76.9497 234° Southwest 423 487 34,000  Level Washington Center
01:25PM 39.4172 -77.0556 223° Southwest 423 487 34,000  Level Washington Center
01:26PM 39.3242 -77.1558 220° Southwest 423 487 34,000  Level Washington Center
01:27PM 39.2314 -77.2528 219° Southwest 436 502 34,000  Level Washington Center
01:28PM 39.1381 -77.3497 219° Southwest 436 502 34,000  Level Washington Center
01:29PM 39.0578 -77.4361 220° Southwest 436 502 34,000  Level Washington Center
01:30PM 38.9517 -77.5456 219° Southwest 436 502 34,000  Level Washington Center
01:31PM 38.8647 -77.6339 218° Southwest 441 507 34,000  Level Washington Center
01:32PM 38.7694 -77.7297 218° Southwest 441 507 34,000  Level Washington Center
01:33PM 38.6736 -77.8306 219° Southwest 449 517 34,000  Level Washington Center
01:34PM 38.5858 -77.9528 227° Southwest 437 503 34,000  Level Washington Center
01:35PM 38.5167 -78.0753 234° Southwest 432 497 34,000  Level Washington Center
01:36PM 38.4472 -78.1975 234° Southwest 432 497 34,000  Level Washington Center
01:37PM 38.3758 -78.3197 233° Southwest 432 497 34,000  Level Washington Center
01:38PM 38.3044 -78.4361 232° Southwest 432 497 34,000  Level Washington Center
01:39PM 38.2367 -78.5578 235° Southwest 432 497 34,000  Level Washington Center
01:40PM 38.1692 -78.6686 232° Southwest 432 497 34,000  Level Washington Center
01:41PM 38.0975 -78.7872 233° Southwest 432 497 34,000  Level Washington Center
01:42PM 38.0231 -78.9106 233° Southwest 432 497 34,000  Level Washington Center
01:43PM 37.9400 -79.0464 232° Southwest 442 509 34,000  Level Washington Center
01:44PM 37.8614 -79.1639 230° Southwest 442 509 34,000  Level Washington Center
01:45PM 37.7767 -79.2806 227° Southwest 449 517 34,000  Level Washington Center
01:46PM 37.6917 -79.3972 227° Southwest 454 522 34,000  Level Washington Center
01:47PM 37.6153 -79.5008 227° Southwest 459 528 34,000  Level Washington Center
01:48PM 37.5233 -79.6269 227° Southwest 454 522 34,000  Level Washington Center
01:49PM 37.4358 -79.7506 228° Southwest 462 532 34,000  Level Washington Center
01:50PM 37.3506 -79.8636 227° Southwest 467 537 34,000  Level Washington Center
01:52PM 37.1714 -80.1083 227° Southwest 457 526 34,000  Level Atlanta Center
01:53PM 37.0853 -80.2219 226° Southwest 457 526 34,000  Level Atlanta Center
01:54PM 36.9992 -80.3381 227° Southwest 457 526 34,000  Level Atlanta Center
01:55PM 36.9231 -80.4375 226° Southwest 457 526 34,000  Level Atlanta Center
01:56PM 36.8389 -80.5528 228° Southwest 457 526 34,000  Level Atlanta Center
01:57PM 36.7522 -80.6681 227° Southwest 457 526 34,000  Level Atlanta Center
01:58PM 36.6697 -80.7778 227° Southwest 451 519 34,000  Level Atlanta Center
01:59PM 36.5750 -80.9006 226° Southwest 456 525 34,000  Level Atlanta Center
02:00PM 36.4883 -81.0150 227° Southwest 456 525 34,000  Level Atlanta Center
02:01PM 36.4033 -81.1264 227° Southwest 456 525 34,000  Level Atlanta Center
02:02PM 36.3183 -81.2403 227° Southwest 456 525 34,000  Level Atlanta Center
02:03PM 36.2353 -81.3514 227° Southwest 452 520 34,000  Level Atlanta Center
02:04PM 36.1500 -81.4622 226° Southwest 446 513 34,000  Level Atlanta Center
02:05PM 36.0669 -81.5728 227° Southwest 433 498 34,000  Level Atlanta Center
02:06PM 35.9875 -81.6753 226° Southwest 433 498 34,000  Level Atlanta Center
02:07PM 35.9019 -81.7853 226° Southwest 439 505 34,000  Level Atlanta Center
02:08PM 35.8183 -81.8928 226° Southwest 434 499 34,000  Level Atlanta Center
02:09PM 35.7367 -81.9972 226° Southwest 434 499 34,000  Level Atlanta Center
02:10PM 35.6531 -82.1042 226° Southwest 434 499 34,000  Level Atlanta Center
02:11PM 35.5669 -82.2108 225° Southwest 434 499 34,000  Level Atlanta Center
02:12PM 35.4767 -82.3097 222° Southwest 434 499 34,000  Level Atlanta Center
02:13PM 35.3986 -82.4006 224° Southwest 439 505 34,000 -600 Level Atlanta Center
02:14PM 35.3103 -82.5017 223° Southwest 439 505 32,800 -1,200 Descending Atlanta Center
02:15PM 35.2092 -82.6075 221° Southwest 439 505 31,600 -1,260 Descending Atlanta Center
02:16PM 35.1186 -82.7108 223° Southwest 439 505 30,300 -1,200 Descending Atlanta Center
02:17PM 35.0258 -82.8136 222° Southwest 444 511 29,300 -960 Descending Atlanta Center
02:18PM 34.9286 -82.9214 222° Southwest 452 520 28,400 -900 Descending Atlanta Center
02:19PM 34.8336 -83.0189 220° Southwest 462 532 27,500 -960 Descending Atlanta Center
02:20PM 34.7383 -83.1289 224° Southwest 462 532 26,500 -900 Descending Atlanta Center
02:21PM 34.6472 -83.2308 223° Southwest 457 526 25,700 -960 Descending Atlanta Center
02:22PM 34.5539 -83.3300 221° Southwest 452 520 24,600 -1,740 Descending Atlanta Center
02:23PM 34.4669 -83.4317 224° Southwest 446 513 22,300 -2,640 Descending Atlanta Center
02:24PM 34.3775 -83.5253 221° Southwest 431 496 19,400 -2,760 Descending Atlanta Center
02:25PM 34.2944 -83.6189 223° Southwest 420 483 16,800 -2,340 Descending Atlanta Center
02:26PM 34.2111 -83.7072 221° Southwest 415 478 14,800 -1,440 Descending Atlanta Center
02:27PM 34.1447 -83.7803 222° Southwest 386 444 14,000 -420 Descending Atlanta Center
02:28PM 34.0800 -83.8506 222° Southwest 342 394 14,000 -420 Level Atlanta Center
02:29PM 34.0167 -83.9167 221° Southwest 310 357 13,300 -1,260 Descending Atlanta TRACON
02:30PM 33.9667 -83.9667 220° Southwest 309 356 12,000 -720 Descending Atlanta TRACON
02:31PM 33.9000 -84.0333 220° Southwest 307 353 12,000  Level Atlanta TRACON
02:32PM 33.8500 -84.1000 228° Southwest 309 356 12,000  Level Atlanta TRACON
02:33PM 33.7667 -84.1500 207° Southwest 309 356 12,000  Level Atlanta TRACON
02:34PM 33.7333 -84.2333 244° Southwest 291 335 12,000 -540 Level Atlanta TRACON
02:35PM 33.7333 -84.3167 270° West 251 289 11,000 -1,260 Descending Atlanta TRACON
02:36PM 33.7333 -84.4000 270° West 255 293 9,500 -1,740 Descending Atlanta TRACON
02:37PM 33.7333 -84.4833 270° West 240 276 7,600 -2,040 Descending Atlanta TRACON
02:38PM 33.7333 -84.5500 270° West 230 265 5,700 -2,160 Descending Atlanta TRACON